Antonito, Colorado
Current Conditions -  °F | °C
As of 7:52 AM on Saturday 20 Dec 2014 (Local Time) from KALS Reporting Station
Clear Clear  
Wind Chill: 10°   Ceiling: Unl
Heat Index: 10°   Visibility: 10mi
Dew Point:   Wind: 3mph
Humidity: 84%   Direction: 50°NE
Pressure: 30.16"   Gusts: NA
Location:  37.08°N, 106.01°W
Report Text: KALS 201452Z AUTO 05003KT 10SM CLR M12/M14 A3016 RMK AO2 SLP286 T11221144 53002
Loading
Personal Weather Stations






























Interactive Weather Map New forecast layout! Learn more

10-Day Weather Forecast

Advertisements
Track Severe Weather on mobile